To NAV CANADA Home Page Login to a new session Search on AWWS site Disclaimer Vers la page française équivalente Tips FAQ What's new on the site To the Forecasts and Observations / NOTAM section To "File a Flight Plan" website Publications and other links Update of the User's profile FIC Telephone Numbers My Weather Data Folder Route Weather Data Regional Weather Data Local Weather Data To the Forecasts and Observations / NOTAM section
Request Generated 10/27/2020 at 08:26:43 UTC . Weather information available at that time is displayed.


Save this request

METAR/TAF

ESTEVAN REGIONAL/SK    (show WxCam)

METAR CYEN 270800Z AUTO 22012KT 9SM OVC170 M09/M12 A2988 RMK SLP159=
METAR CYEN 270700Z AUTO 22010KT 9SM FEW190 M11/M13 A2994 RMK SLP180=
METAR CYEN 270600Z AUTO /////KT 9SM CLR M11/M13 A2994 RMK WND MISG SLP182=

*** REMARK        : Forecast period has ended; this was the last TAF issued
*** REMARQUE : La période de prévision est échue; ceci était le dernier TAF qui a été émis
TAF CYEN 261750Z 2618/2624 21012G22KT P6SM SCT120 BKN220
FM262100 25012G22KT P6SM BKN120
RMK FCST BASED ON AUTO OBS. NXT FCST WILL BE ISSUED AT 271145Z=

MOOSE JAW/AIR VICE MARSHAL C.M. MCEWEN/SK    

CYMJ - METAR not available

*** REMARK        : Forecast period has ended; this was the last TAF issued
*** REMARQUE : La période de prévision est échue; ceci était le dernier TAF qui a été émis
TAF AMD CYMJ 262300Z 2618/2706 FCST CNCLD DUE END OF FLYING PROGRAM
RMK NXT FCST WILL BE ISSUED AT 271115Z=

REGINA INTL/SK    

METAR CYQR 270800Z 22009KT 15SM SCT140 M05/M08 A2979 RMK AC3 PRESFR SLP122=
METAR CYQR 270700Z 23011KT 15SM OVC140 M05/M08 A2982 RMK AC8 SLP134=
METAR CYQR 270600Z 23010KT 15SM OVC160 M06/M08 A2987 RMK AC8 SLP152=

TAF CYQR 270538Z 2706/2806 24010KT P6SM FEW180 OVC260
FM270900 24012KT P6SM SCT060 OVC100
FM271100 24015G25KT P6SM -SN SCT020 OVC060 TEMPO 2711/2715 21/2SM
-SN OVC020 PROB30 2712/2715 P6SM -FZRA
FM271500 26018G28KT P6SM SCT015 OVC040 TEMPO 2715/2722 P6SM -SHRA
BKN015 OVC040
BECMG 2716/2718 30018G28KT
FM272200 30012G22KT P6SM BKN040 TEMPO 2722/2806 P6SM -SHRA
RMK NXT FCST BY 271200Z=

SASKATOON/JOHN G. DIEFENBAKER INTL/SK    

METAR CYXE 270800Z 20010KT 12SM -SN OVC038 M02/M09 A2962 RMK SC8 PRESFR SLP059=
SPECI CYXE 270720Z 18006KT 15SM -SN SCT038 OVC080 M03/M11 A2967 RMK SC4AC4 SLP077=
METAR CYXE 270700Z 19006KT 15SM SCT080 OVC120 M03/M11 A2969 RMK AS4AS4 SLP082=
METAR CYXE 270600Z 21007KT 15SM SCT120 BKN240 M03/M11 A2974 RMK AS3CS3 SLP101=

TAF CYXE 270538Z 2706/2806 21008KT P6SM SCT240
FM270700 21010KT P6SM SCT050 OVC100
FM270900 21012KT 6SM -RASN SCT020 OVC050 TEMPO 2709/2713 2SM -SN
SCT008 OVC020 PROB30 2709/2713 5SM -FZRA BR
FM271300 26012G22KT P6SM SCT012 OVC025 TEMPO 2713/2718 P6SM -RA
FEW008 OVC012
FM271800 29015G30KT P6SM SCT015 BKN060 TEMPO 2718/2806 P6SM -SHRA
BKN015 BKN060
BECMG 2722/2724 30012G22KT
RMK NXT FCST BY 271200Z=

YORKTON MUNICIPALITY/SK    (show WxCam)

METAR CYQV 270800Z AUTO 21011KT 9SM OVC160 M07/M10 A2975 RMK PRESFR SLP110=
METAR CYQV 270700Z AUTO 22010G15KT 9SM OVC170 M07/M11 A2979 RMK SLP122=
METAR CYQV 270600Z AUTO 22011KT 9SM BKN170 BKN190 M08/M12 A2981 RMK SLP131=

*** REMARK        : Forecast period has ended; this was the last TAF issued
*** REMARQUE : La période de prévision est échue; ceci était le dernier TAF qui a été émis
TAF CYQV 262338Z 2700/2706 27009KT P6SM SKC
RMK FCST BASED ON AUTO OBS. NXT FCST WILL BE ISSUED AT 271145Z=

BRANDON MUNICIPALITY/MB    

METAR CYBR 270800Z 25009KT 15SM SCT190 SCT250 M10/M12 A2988 RMK AC3CI1 SLP150=
METAR CYBR 270700Z 24008KT 15SM SCT250 M10/M12 A2990 RMK CI4 SLP159=
METAR CYBR 270600Z 23007KT 15SM FEW250 M11/M13 A2993 RMK CI2 SLP168=

TAF CYBR 270538Z 2706/2718 25012KT P6SM FEW050 BKN250
FM271200 25012KT P6SM BKN120
FM271500 24015G25KT 6SM -SN SCT015 OVC040 TEMPO 2715/2718 2SM -SN
OVC015
RMK NXT FCST BY 271200Z=

PORTAGE LA PRAIRIE/SOUTHPORT/MB    

CYPG - METAR not available

TAF AMD CYPG 270316Z 2700/2712 FCST CNCLD DUE END OF FLYING PROGRAM
RMK NXT FCST WILL BE ISSUED AT 271215Z=

WINNIPEG/JAMES ARMSTRONG RICHARDSON INTL/MB    

METAR CYWG 270800Z 19015G22KT 15SM FEW240 M08/M12 A2994 RMK CI2 SLP156=
METAR CYWG 270700Z 19013KT 15SM SKC M07/M11 A2997 RMK SLP166=
METAR CYWG 270600Z 19016G21KT 15SM FEW210 M07/M11 A2998 RMK CI1 SLP168=

TAF CYWG 270538Z 2706/2806 20015KT P6SM SCT070 SCT220 TEMPO 2706/2709
BKN070 BKN220
FM270900 20012KT P6SM SCT200
FM271400 20015KT P6SM BKN120
FM271700 21015KT 6SM -SN SCT020 OVC040 TEMPO 2717/2724 2SM -SN
OVC020
FM280000 25010KT P6SM SCT015 BKN040 TEMPO 2800/2806 P6SM -RASN
BKN015 OVC040
RMK NXT FCST BY 271200Z=


Your time UTC time
Weather data provided by Environment Canada and NAV CANADA